Appingedam, Netherlands
Current Conditions -  °F | °C
As of 11:55 AM on Friday 21 Nov 2014 (Local Time) from EHGG Reporting Station
Clear Clear  
Wind Chill: 39°   Ceiling: Unl
Heat Index: 43°   Visibility: 5mi
Dew Point: 39°   Wind: 7mph
Humidity: 87%   Direction: 90°E
Pressure: 30.27"   Gusts: NA
Location:  53.32°N, 6.86°E
Report Text: EHGG 211055Z AUTO 09006KT 060V130 8000 NCD 06/04 Q1025 NOSIG
Loading
Personal Weather Stations






























Interactive Weather Map New forecast layout! Learn more

10-Day Weather Forecast

Advertisements
Track Severe Weather on mobile